Royersford, PA (19468)

7:52 AM EDT on April 19, 2015 (GMT -0400)
KA1UDX CWOP-AP704 | | Change Station
CLOSE
Current Station
Personal Weather Station
Location: Collegeville, PA
Elevation: 253 ft
Nearby Weather Stations

Elev 253 ft 40.22 °N, 75.48 °W | Updated 1 minute ago

Clear
Clear
55.0 °F
Feels Like 55.0 °F
N
5.2
Wind Variable Wind from ENE
Gusts 5.9 mph

Today
High -- | Low -- °F
--% Chance of Precip.
Yesterday
High -- | Low -- °F
Precip. -- in
6:18 AM 7:44 PM
New Moon, 1% visible
Pressure 30.18 in
Visibility 10.0 miles
Clouds Clear
Dew Point 30 °F
Humidity 39%
Rainfall 0.00 in
Snow Depth Not available.
UV 0 out of 12
Pollen 10.90 out of 12
Air Quality Not available.
Flu Activity Sporadic
METAR KPTW 191054Z AUTO 06005KT 10SM CLR 11/M04 A3019 RMK AO2 SLP220 T01061039

More Conditions Fewer Conditions

Pressure 30.18 in
Visibility 10.0 miles
Clouds Clear
Dew Point 30 °F
Humidity 39%
Rainfall 0.00 in
Snow Depth Not available.
UV 0 out of 12
Pollen 10.90 out of 12
Air Quality Not available.
Flu Activity Sporadic
METAR KPTW 191054Z AUTO 06005KT 10SM CLR 11/M04 A3019 RMK AO2 SLP220 T01061039

More Conditions Fewer Conditions

10-Day Weather Forecast

Almanac

Astronomy

Apr. 19, 2015 Rise Set
Actual Time
Civil Twilight
Nautical Twilight
Astronomical Twilight
Moon
Length of Visible Light
Length of Day
Tomorrow will be .
, % of the Moon is Illuminated

Today's Extremes

State Highs State Lows

Community

WunderPhotos

Upload Photos

1,814,760 photos uploaded!

WunderBlogs® & News

Nearby

Air Quality

  Air Quality AQ Index Pollutant
Not available.

Snow Depth

Station Depth Elevation

Earthquake Activity

City Distance Mag. Time & Date
Minimum magnitude displayed is 2.5.

Coastal Water Temperatures

Place Temperature

Stations

Nearby Weather Stations

Station Location Temp. Windchill Dew Point Humidity Wind Precip. Elev Updated Type